createdAt,value
2019-05-11T00:01:49.114Z,6.90
2019-05-11T00:04:19.484Z,6.90
2019-05-11T00:06:49.584Z,6.90
2019-05-11T00:09:19.310Z,6.80
2019-05-11T00:11:49.891Z,6.80
2019-05-11T00:14:20.267Z,6.80
2019-05-11T00:16:50.269Z,6.90
2019-05-11T00:19:20.628Z,6.80
2019-05-11T00:21:58.431Z,6.80
2019-05-11T00:24:29.662Z,6.90
2019-05-11T00:26:59.698Z,6.70
2019-05-11T00:29:29.462Z,6.70
2019-05-11T00:31:59.800Z,6.80
2019-05-11T00:34:29.896Z,6.60
2019-05-11T00:37:00.875Z,6.40
2019-05-11T00:39:31.216Z,6.50
2019-05-11T00:42:01.647Z,6.60
2019-05-11T00:44:31.813Z,6.60
2019-05-11T00:47:01.726Z,6.60
2019-05-11T00:49:32.067Z,6.20
2019-05-11T00:52:01.703Z,5.20
2019-05-11T00:54:32.301Z,4.80
2019-05-11T00:57:02.425Z,5.50
2019-05-11T00:59:33.184Z,6.00
2019-05-11T01:02:03.252Z,6.20
2019-05-11T01:04:36.011Z,6.40
2019-05-11T01:07:06.026Z,6.40
2019-05-11T01:09:37.026Z,6.40
2019-05-11T01:12:07.099Z,6.30
2019-05-11T01:14:57.495Z,6.20
2019-05-11T01:17:27.132Z,6.20
2019-05-11T01:20:00.674Z,6.20
2019-05-11T01:22:30.531Z,6.30
2019-05-11T01:25:06.639Z,6.30
2019-05-11T01:27:36.847Z,6.30
2019-05-11T01:30:06.811Z,5.90
2019-05-11T01:32:37.122Z,5.90
2019-05-11T01:35:07.148Z,6.00
2019-05-11T01:37:41.641Z,5.30
2019-05-11T01:40:11.877Z,5.10
2019-05-11T01:42:42.396Z,4.90
2019-05-11T01:45:12.695Z,5.30
2019-05-11T01:47:44.148Z,5.50
2019-05-11T01:50:14.398Z,5.70
2019-05-11T01:52:44.886Z,5.70
2019-05-11T01:55:15.003Z,5.50
2019-05-11T01:57:45.235Z,5.20
2019-05-11T02:00:15.003Z,5.00
2019-05-11T02:02:45.317Z,5.30
2019-05-11T02:05:33.720Z,5.50
2019-05-11T02:08:03.444Z,5.60
2019-05-11T02:10:33.237Z,5.70
2019-05-11T02:13:03.091Z,5.70
2019-05-11T02:15:33.932Z,5.80
2019-05-11T02:18:03.908Z,5.60
2019-05-11T02:20:33.608Z,5.60
2019-05-11T02:23:04.610Z,5.40
2019-05-11T02:25:34.770Z,5.40
2019-05-11T02:28:04.654Z,5.40
2019-05-11T02:30:34.546Z,5.20
2019-05-11T02:33:05.049Z,5.10
2019-05-11T02:35:35.298Z,5.30
2019-05-11T02:38:05.283Z,5.50
2019-05-11T02:40:34.922Z,5.60
2019-05-11T02:43:04.704Z,5.50
2019-05-11T02:45:42.798Z,5.50
2019-05-11T02:48:12.822Z,5.50
2019-05-11T02:50:44.390Z,5.50
2019-05-11T02:53:14.073Z,5.60
2019-05-11T02:55:46.087Z,5.50
2019-05-11T02:58:16.462Z,5.30
2019-05-11T03:00:47.424Z,5.40
2019-05-11T03:03:17.461Z,5.40
2019-05-11T03:05:47.527Z,5.30
2019-05-11T03:08:17.681Z,5.30
2019-05-11T03:10:53.516Z,5.40
2019-05-11T03:13:23.319Z,5.30
2019-05-11T03:15:53.604Z,4.60
2019-05-11T03:18:23.594Z,3.80
2019-05-11T03:20:53.565Z,4.30
2019-05-11T03:23:23.827Z,4.60
2019-05-11T03:25:57.605Z,4.60
2019-05-11T03:28:28.086Z,4.90
2019-05-11T03:30:58.219Z,5.00
2019-05-11T03:33:28.318Z,5.00
2019-05-11T03:35:58.738Z,5.00
2019-05-11T03:38:29.099Z,5.20
2019-05-11T03:40:59.522Z,5.10
2019-05-11T03:43:29.842Z,5.00
2019-05-11T03:46:00.195Z,5.00
2019-05-11T03:48:30.197Z,5.10
2019-05-11T03:51:00.052Z,4.60
2019-05-11T03:53:32.690Z,3.90
2019-05-11T03:56:02.808Z,3.90
2019-05-11T03:58:32.832Z,4.40
2019-05-11T04:01:03.479Z,4.60
2019-05-11T04:03:34.331Z,4.80
2019-05-11T04:06:06.623Z,4.90
2019-05-11T04:08:36.680Z,4.20
2019-05-11T04:11:06.769Z,4.30
2019-05-11T04:13:36.832Z,4.30
2019-05-11T04:16:07.218Z,4.50
2019-05-11T04:18:37.905Z,4.60
2019-05-11T04:21:07.632Z,4.70
2019-05-11T04:23:37.977Z,4.30
2019-05-11T04:26:08.424Z,4.20
2019-05-11T04:28:38.816Z,4.40
2019-05-11T04:31:09.619Z,4.60
2019-05-11T04:33:39.473Z,4.40
2019-05-11T04:36:09.790Z,4.30
2019-05-11T04:38:40.377Z,4.30
2019-05-11T04:41:10.637Z,4.40
2019-05-11T04:43:40.890Z,4.80
2019-05-11T04:46:11.369Z,5.00
2019-05-11T04:48:41.335Z,5.20
2019-05-11T04:51:11.168Z,5.30
2019-05-11T04:53:41.015Z,5.40
2019-05-11T04:56:11.393Z,5.50
2019-05-11T04:58:41.208Z,5.20
2019-05-11T05:01:11.828Z,5.10
2019-05-11T05:03:47.352Z,5.20
2019-05-11T05:06:28.483Z,5.40
2019-05-11T05:08:45.374Z,5.70
2019-05-11T05:11:20.021Z,5.60
2019-05-11T05:13:53.276Z,5.80
2019-05-11T05:16:21.732Z,5.90
2019-05-11T05:18:52.364Z,6.10
2019-05-11T05:21:23.083Z,6.20
2019-05-11T05:23:53.845Z,6.30
2019-05-11T05:26:23.905Z,5.80
2019-05-11T05:28:54.176Z,6.00
2019-05-11T05:31:24.665Z,5.90
2019-05-11T05:33:56.253Z,6.00
2019-05-11T05:36:28.858Z,6.20
2019-05-11T05:38:58.910Z,6.40
2019-05-11T05:41:29.590Z,6.20
2019-05-11T05:43:59.879Z,6.30
2019-05-11T05:46:31.084Z,6.40
2019-05-11T05:49:01.305Z,6.60
2019-05-11T05:51:30.948Z,6.60
2019-05-11T05:54:01.112Z,6.60
2019-05-11T05:56:31.627Z,6.80
2019-05-11T05:59:01.399Z,6.90
2019-05-11T06:01:31.555Z,7.00
2019-05-11T06:04:01.272Z,7.00
2019-05-11T06:06:31.422Z,7.20
2019-05-11T06:09:01.609Z,7.40
2019-05-11T06:11:31.618Z,7.50
2019-05-11T06:14:01.487Z,7.60
2019-05-11T06:16:31.959Z,7.80
2019-05-11T06:19:02.557Z,7.80
2019-05-11T06:21:32.731Z,8.30
2019-05-11T06:24:06.757Z,8.60
2019-05-11T06:26:36.008Z,8.90
2019-05-11T06:29:05.811Z,8.90
2019-05-11T06:31:49.108Z,8.80
2019-05-11T06:34:19.553Z,8.70
2019-05-11T06:36:49.776Z,8.80
2019-05-11T06:39:19.464Z,8.60
2019-05-11T06:41:49.618Z,8.90
2019-05-11T06:44:19.666Z,8.80
2019-05-11T06:46:49.701Z,9.30
2019-05-11T06:49:19.160Z,9.40
2019-05-11T06:51:55.201Z,9.20
2019-05-11T06:54:25.435Z,9.70
2019-05-11T06:56:55.715Z,9.70
2019-05-11T06:59:26.105Z,10.00
2019-05-11T07:01:56.520Z,11.00
2019-05-11T07:04:26.833Z,10.00
2019-05-11T07:06:57.011Z,10.20
2019-05-11T07:09:27.487Z,11.20
2019-05-11T07:11:58.314Z,11.60
2019-05-11T07:14:28.284Z,11.00
2019-05-11T07:16:58.335Z,11.70
2019-05-11T07:19:28.948Z,12.50
2019-05-11T07:21:59.387Z,10.80
2019-05-11T07:24:29.759Z,13.00
2019-05-11T07:26:59.896Z,13.50
2019-05-11T07:29:30.158Z,12.80
2019-05-11T07:32:08.162Z,11.40
2019-05-11T07:34:38.333Z,13.00
2019-05-11T07:37:09.102Z,13.60
2019-05-11T07:39:39.483Z,13.30
2019-05-11T07:42:09.266Z,14.70
2019-05-11T07:44:44.627Z,13.50
2019-05-11T07:47:14.723Z,13.60
2019-05-11T07:52:29.782Z,14.40
2019-05-11T07:55:00.727Z,14.80
2019-05-11T07:57:48.136Z,14.30
2019-05-11T08:00:18.741Z,14.50
2019-05-11T08:02:49.392Z,14.70
2019-05-11T08:05:19.359Z,15.70
2019-05-11T08:07:49.914Z,14.10
2019-05-11T08:10:20.391Z,16.60
2019-05-11T08:12:50.194Z,17.00
2019-05-11T08:15:19.916Z,18.00
2019-05-11T08:17:49.973Z,17.60
2019-05-11T08:20:19.674Z,15.70
2019-05-11T08:22:50.045Z,17.10
2019-05-11T08:25:20.120Z,16.80
2019-05-11T08:27:50.938Z,14.30
2019-05-11T08:30:23.635Z,17.70
2019-05-11T08:32:54.398Z,16.00
2019-05-11T08:35:27.723Z,13.10
2019-05-11T08:37:58.125Z,15.20
2019-05-11T08:40:28.823Z,15.60
2019-05-11T08:42:58.829Z,17.60
2019-05-11T08:45:32.270Z,13.10
2019-05-11T08:48:02.402Z,14.90
2019-05-11T08:50:32.152Z,15.30
2019-05-11T08:53:02.023Z,15.90
2019-05-11T08:55:32.410Z,15.40
2019-05-11T08:58:04.047Z,18.00
2019-05-11T09:00:33.907Z,14.10
2019-05-11T09:03:05.058Z,14.80
2019-05-11T09:05:35.387Z,15.10
2019-05-11T09:08:05.478Z,18.70
2019-05-11T09:10:37.606Z,18.30
2019-05-11T09:13:08.068Z,19.00
2019-05-11T09:15:40.721Z,16.60
2019-05-11T09:18:11.566Z,17.40
2019-05-11T09:20:48.547Z,18.50
2019-05-11T09:23:33.427Z,20.80
2019-05-11T09:25:50.165Z,19.60
2019-05-11T09:28:21.038Z,20.60
2019-05-11T09:30:51.130Z,20.50
2019-05-11T09:33:21.250Z,17.20
2019-05-11T09:35:53.484Z,15.30
2019-05-11T09:38:22.796Z,17.70
2019-05-11T09:40:59.199Z,18.40
2019-05-11T09:43:32.515Z,17.40
2019-05-11T09:46:03.233Z,18.10
2019-05-11T09:48:33.644Z,16.00
2019-05-11T09:51:03.412Z,15.80
2019-05-11T09:53:33.768Z,14.10
2019-05-11T09:56:03.636Z,13.90
2019-05-11T09:58:34.012Z,13.70
2019-05-11T10:01:04.989Z,17.50
2019-05-11T10:03:35.101Z,15.50
2019-05-11T10:06:05.150Z,15.00
2019-05-11T10:08:35.347Z,18.50
2019-05-11T10:11:08.179Z,17.50
2019-05-11T10:13:38.424Z,17.70
2019-05-11T10:16:10.723Z,16.80
2019-05-11T10:18:41.547Z,16.50
2019-05-11T10:21:13.850Z,17.00
2019-05-11T10:23:49.631Z,18.90
2019-05-11T10:26:21.296Z,16.30
2019-05-11T10:28:51.709Z,14.70
2019-05-11T10:31:21.850Z,14.80
2019-05-11T10:33:52.242Z,15.60
2019-05-11T10:36:22.559Z,14.30
2019-05-11T10:38:58.631Z,16.20
2019-05-11T10:41:28.426Z,16.10
2019-05-11T10:44:02.329Z,14.30
2019-05-11T10:46:32.955Z,16.10
2019-05-11T10:49:03.641Z,13.00
2019-05-11T10:51:34.568Z,16.20
2019-05-11T10:54:04.912Z,15.60
2019-05-11T10:56:35.891Z,14.90
2019-05-11T10:59:07.992Z,14.70
2019-05-11T11:01:38.293Z,14.80
2019-05-11T11:04:08.587Z,12.80
2019-05-11T11:06:38.981Z,14.90
2019-05-11T11:09:10.493Z,15.90
2019-05-11T11:11:40.347Z,15.30
2019-05-11T11:14:10.794Z,14.70
2019-05-11T11:16:43.032Z,16.20
2019-05-11T11:19:13.036Z,16.40
2019-05-11T11:21:43.033Z,14.30
2019-05-11T11:24:13.262Z,14.40
2019-05-11T11:26:44.122Z,12.60
2019-05-11T11:29:14.835Z,13.40
2019-05-11T11:31:44.850Z,14.40
2019-05-11T11:34:18.777Z,14.50
2019-05-11T11:36:49.109Z,13.70
2019-05-11T11:39:19.880Z,14.80
2019-05-11T11:41:51.286Z,15.20
2019-05-11T11:44:22.777Z,15.40
2019-05-11T11:46:55.735Z,14.90
2019-05-11T11:49:28.401Z,15.40
2019-05-11T11:51:59.418Z,15.70
2019-05-11T11:54:29.489Z,15.80
2019-05-11T11:56:59.507Z,15.50
2019-05-11T11:59:32.224Z,16.50
2019-05-11T12:02:03.106Z,15.50
2019-05-11T12:04:34.445Z,16.00
2019-05-11T12:07:04.970Z,15.70
2019-05-11T12:09:39.646Z,15.20
2019-05-11T12:12:09.816Z,15.40
2019-05-11T12:14:40.400Z,16.30
2019-05-11T12:17:11.253Z,15.80
2019-05-11T12:19:41.961Z,14.90
2019-05-11T12:22:12.485Z,14.50
2019-05-11T12:24:48.182Z,14.70
2019-05-11T12:27:19.943Z,14.60
2019-05-11T12:29:50.407Z,17.80
2019-05-11T12:32:27.636Z,15.30
2019-05-11T12:34:58.816Z,15.10
2019-05-11T12:37:31.022Z,15.60
2019-05-11T12:40:02.167Z,15.20
2019-05-11T12:42:32.200Z,14.80
2019-05-11T12:45:02.446Z,14.30
2019-05-11T12:47:32.626Z,15.40
2019-05-11T12:50:07.793Z,13.80
2019-05-11T12:52:39.474Z,14.20
2019-05-11T12:55:20.463Z,15.90
2019-05-11T12:57:51.934Z,15.90
2019-05-11T13:00:22.589Z,15.60
2019-05-11T13:02:53.218Z,15.00
2019-05-11T13:05:23.795Z,17.20
2019-05-11T13:07:54.655Z,14.30
2019-05-11T13:10:25.250Z,15.60
2019-05-11T13:13:02.549Z,15.40
2019-05-11T13:15:31.244Z,16.70
2019-05-11T13:18:01.634Z,14.80
2019-05-11T13:20:33.167Z,15.20
2019-05-11T13:23:03.506Z,17.30
2019-05-11T13:25:33.482Z,17.20
2019-05-11T13:28:04.998Z,14.70
2019-05-11T13:30:35.359Z,13.90
2019-05-11T13:33:05.571Z,14.10
2019-05-11T13:35:37.636Z,14.20
2019-05-11T13:38:08.762Z,16.20
2019-05-11T13:40:39.644Z,13.70
2019-05-11T13:43:10.386Z,16.90
2019-05-11T13:45:40.865Z,14.50
2019-05-11T13:48:11.854Z,15.90
2019-05-11T13:50:42.470Z,14.80
2019-05-11T13:53:12.225Z,15.40
2019-05-11T13:55:42.476Z,17.00
2019-05-11T13:58:21.127Z,14.70
2019-05-11T14:00:55.928Z,14.00
2019-05-11T14:03:27.703Z,15.50
2019-05-11T14:05:58.333Z,15.10
2019-05-11T14:08:28.834Z,14.90
2019-05-11T14:10:59.823Z,15.70
2019-05-11T14:13:29.874Z,14.90
2019-05-11T14:15:59.593Z,14.20
2019-05-11T14:18:44.738Z,14.20
2019-05-11T14:21:22.101Z,14.40
2019-05-11T14:23:52.934Z,16.00
2019-05-11T14:26:22.991Z,14.40
2019-05-11T14:28:52.817Z,15.20
2019-05-11T14:31:22.597Z,14.20
2019-05-11T14:33:52.934Z,13.80
2019-05-11T14:36:23.107Z,14.70
2019-05-11T14:38:53.345Z,15.50
2019-05-11T14:41:23.144Z,15.10
2019-05-11T14:43:54.254Z,14.40
2019-05-11T14:46:24.188Z,14.10
2019-05-11T14:48:54.428Z,14.80
2019-05-11T14:51:24.644Z,14.90
2019-05-11T14:53:59.469Z,15.70
2019-05-11T14:56:28.762Z,16.00
2019-05-11T14:58:58.771Z,14.30
2019-05-11T15:01:30.029Z,15.10
2019-05-11T15:04:00.075Z,14.30
2019-05-11T15:06:29.747Z,13.50
2019-05-11T15:09:00.764Z,13.70
2019-05-11T15:11:32.320Z,16.20
2019-05-11T15:14:04.401Z,14.80
2019-05-11T15:16:34.115Z,14.20
2019-05-11T15:19:04.659Z,13.40
2019-05-11T15:21:34.770Z,14.70
2019-05-11T15:24:04.689Z,14.20
2019-05-11T15:26:34.494Z,14.00
2019-05-11T15:29:04.206Z,13.00
2019-05-11T15:31:38.129Z,12.60
2019-05-11T15:34:08.619Z,13.30
2019-05-11T15:36:38.879Z,13.10
2019-05-11T15:39:08.940Z,15.10
2019-05-11T15:41:39.091Z,14.60
2019-05-11T15:44:11.947Z,13.40
2019-05-11T15:46:41.027Z,12.70
2019-05-11T15:49:11.397Z,14.80
2019-05-11T15:51:41.377Z,15.10
2019-05-11T15:54:11.155Z,13.30
2019-05-11T15:56:41.549Z,13.30
2019-05-11T15:59:11.754Z,13.60
2019-05-11T16:01:41.921Z,14.00
2019-05-11T16:04:11.660Z,13.40
2019-05-11T16:06:47.381Z,13.90
2019-05-11T16:09:18.397Z,14.40
2019-05-11T16:11:48.635Z,13.60
2019-05-11T16:14:18.487Z,14.80
2019-05-11T16:16:49.075Z,12.60
2019-05-11T16:19:19.334Z,12.60
2019-05-11T16:21:49.336Z,13.20
2019-05-11T16:24:19.209Z,14.70
2019-05-11T16:26:49.677Z,13.30
2019-05-11T16:29:27.885Z,12.30
2019-05-11T16:31:57.937Z,12.70
2019-05-11T16:34:28.133Z,13.00
2019-05-11T16:36:58.261Z,14.60
2019-05-11T16:39:28.342Z,14.10
2019-05-11T16:41:58.468Z,15.50
2019-05-11T16:44:28.628Z,15.30
2019-05-11T16:46:58.883Z,12.70
2019-05-11T16:49:32.373Z,11.80
2019-05-11T16:52:02.346Z,12.10
2019-05-11T16:54:32.290Z,13.40
2019-05-11T16:57:02.115Z,12.70
2019-05-11T16:59:32.481Z,12.00
2019-05-11T17:02:02.840Z,11.70
2019-05-11T17:04:35.068Z,12.40
2019-05-11T17:07:06.121Z,12.20
2019-05-11T17:09:37.836Z,11.80
2019-05-11T17:12:11.518Z,11.20
2019-05-11T17:14:58.450Z,11.40
2019-05-11T17:17:29.005Z,11.60
2019-05-11T17:19:59.057Z,13.90
2019-05-11T17:22:29.564Z,12.20
2019-05-11T17:25:02.236Z,12.10
2019-05-11T17:27:33.268Z,12.70
2019-05-11T17:30:03.273Z,12.90
2019-05-11T17:32:33.312Z,12.30
2019-05-11T17:35:03.944Z,12.70
2019-05-11T17:37:52.742Z,12.10
2019-05-11T17:40:23.647Z,13.30
2019-05-11T17:42:54.238Z,12.10
2019-05-11T17:45:25.938Z,12.30
2019-05-11T17:47:58.256Z,11.70
2019-05-11T17:50:28.298Z,12.00
2019-05-11T17:52:58.207Z,13.20
2019-05-11T17:55:28.721Z,12.00
2019-05-11T17:57:58.624Z,12.50
2019-05-11T18:00:28.539Z,12.10
2019-05-11T18:02:58.569Z,12.50
2019-05-11T18:05:28.349Z,11.10
2019-05-11T18:08:00.451Z,11.90
2019-05-11T18:10:30.494Z,12.20
2019-05-11T18:13:03.975Z,11.10
2019-05-11T18:15:32.341Z,11.10
2019-05-11T18:18:02.203Z,11.70
2019-05-11T18:20:32.695Z,10.70
2019-05-11T18:23:03.678Z,10.40
2019-05-11T18:25:33.654Z,13.10
2019-05-11T18:28:04.540Z,11.30
2019-05-11T18:30:35.100Z,11.10
2019-05-11T18:33:04.978Z,12.80
2019-05-11T18:35:35.957Z,11.00
2019-05-11T18:38:08.349Z,11.00
2019-05-11T18:40:38.166Z,11.60
2019-05-11T18:43:09.102Z,13.10
2019-05-11T18:45:39.253Z,12.50
2019-05-11T18:48:09.087Z,11.10
2019-05-11T18:50:39.495Z,11.50
2019-05-11T18:53:10.017Z,11.50
2019-05-11T18:55:41.918Z,10.10
2019-05-11T18:58:12.475Z,10.60
2019-05-11T19:00:43.944Z,11.40
2019-05-11T19:03:19.047Z,10.20
2019-05-11T19:05:48.224Z,9.60
2019-05-11T19:08:19.045Z,9.90
2019-05-11T19:10:52.935Z,9.30
2019-05-11T19:13:23.066Z,10.00
2019-05-11T19:15:53.615Z,9.60
2019-05-11T19:18:27.970Z,9.90
2019-05-11T19:20:58.315Z,9.30
2019-05-11T19:23:28.684Z,9.50
2019-05-11T19:25:59.178Z,9.70
2019-05-11T19:28:28.807Z,9.50
2019-05-11T19:30:59.332Z,10.40
2019-05-11T19:33:29.571Z,9.60
2019-05-11T19:36:00.038Z,9.40
2019-05-11T19:38:34.091Z,9.00
2019-05-11T19:41:04.553Z,10.30
2019-05-11T19:43:34.299Z,10.80
2019-05-11T19:46:04.436Z,9.90
2019-05-11T19:48:34.247Z,10.50
2019-05-11T19:51:08.181Z,9.70
2019-05-11T19:53:38.422Z,9.40
2019-05-11T19:56:08.042Z,9.50
2019-05-11T19:58:38.219Z,8.20
2019-05-11T20:01:08.987Z,9.40
2019-05-11T20:03:38.605Z,9.10
2019-05-11T20:06:08.900Z,9.20
2019-05-11T20:08:38.914Z,8.90
2019-05-11T20:11:08.647Z,9.20
2019-05-11T20:13:38.882Z,8.50
2019-05-11T20:16:08.917Z,8.30
2019-05-11T20:18:38.738Z,8.90
2019-05-11T20:21:16.553Z,9.00
2019-05-11T20:23:39.906Z,9.00
2019-05-11T20:26:11.140Z,8.60
2019-05-11T20:28:41.212Z,8.60
2019-05-11T20:31:11.689Z,8.50
2019-05-11T20:33:42.350Z,8.20
2019-05-11T20:36:13.171Z,8.20
2019-05-11T20:38:50.110Z,8.40
2019-05-11T20:41:20.065Z,9.20
2019-05-11T20:43:50.411Z,8.90
2019-05-11T20:46:21.115Z,9.00
2019-05-11T20:49:00.651Z,8.70
2019-05-11T20:51:37.980Z,8.90
2019-05-11T20:54:09.128Z,8.40
2019-05-11T20:56:40.444Z,8.50
2019-05-11T20:59:11.085Z,8.60
2019-05-11T21:01:41.191Z,8.30
2019-05-11T21:04:10.932Z,8.60
2019-05-11T21:06:41.015Z,7.80
2019-05-11T21:09:10.970Z,7.60
2019-05-11T21:11:40.895Z,7.70
2019-05-11T21:14:11.289Z,7.10
2019-05-11T21:16:41.121Z,8.20
2019-05-11T21:19:11.313Z,7.90
2019-05-11T21:21:49.891Z,7.60
2019-05-11T21:24:13.611Z,7.20
2019-05-11T21:26:43.296Z,7.80
2019-05-11T21:29:14.674Z,7.50
2019-05-11T21:31:44.769Z,8.00
2019-05-11T21:34:14.539Z,8.20
2019-05-11T21:36:44.523Z,8.00
2019-05-11T21:39:14.281Z,7.90
2019-05-11T21:41:44.359Z,7.60
2019-05-11T21:44:14.359Z,7.70
2019-05-11T21:46:44.192Z,7.10
2019-05-11T21:49:15.548Z,7.10
2019-05-11T21:51:45.355Z,7.30
2019-05-11T21:54:19.473Z,7.10
2019-05-11T21:56:50.478Z,7.70
2019-05-11T21:59:22.437Z,7.60
2019-05-11T22:01:54.189Z,7.40
2019-05-11T22:04:24.372Z,7.20
2019-05-11T22:10:46.495Z,7.20
2019-05-11T22:13:17.724Z,7.50
2019-05-11T22:15:48.624Z,7.30
2019-05-11T22:18:30.163Z,7.60
2019-05-11T22:20:52.201Z,8.10
2019-05-11T22:23:22.781Z,7.70
2019-05-11T22:25:52.492Z,7.40
2019-05-11T22:28:22.355Z,7.90
2019-05-11T22:30:51.928Z,8.10
2019-05-11T22:33:22.335Z,8.00
2019-05-11T22:35:52.450Z,8.20
2019-05-11T22:38:25.131Z,8.00
2019-05-11T22:40:58.242Z,7.80
2019-05-11T22:43:30.411Z,7.60
2019-05-11T22:46:00.029Z,7.30
2019-05-11T22:48:32.627Z,7.70
2019-05-11T22:51:02.520Z,7.40
2019-05-11T22:53:43.796Z,7.60
2019-05-11T22:56:04.311Z,7.30
2019-05-11T22:58:34.759Z,7.10
2019-05-11T23:01:04.499Z,6.50
2019-05-11T23:03:34.340Z,6.50
2019-05-11T23:06:04.379Z,6.20
2019-05-11T23:08:34.088Z,5.90
2019-05-11T23:11:04.483Z,6.40
2019-05-11T23:13:34.279Z,6.80
2019-05-11T23:16:04.334Z,6.60
2019-05-11T23:18:34.190Z,6.30
2019-05-11T23:21:04.130Z,6.30
2019-05-11T23:23:34.113Z,6.90
2019-05-11T23:26:03.883Z,6.50
2019-05-11T23:28:33.940Z,6.90
2019-05-11T23:31:04.280Z,7.00
2019-05-11T23:33:34.278Z,7.00
2019-05-11T23:36:03.847Z,7.00
2019-05-11T23:38:33.612Z,7.30
2019-05-11T23:41:04.700Z,6.60
2019-05-11T23:43:34.451Z,6.10
2019-05-11T23:46:04.322Z,6.50
2019-05-11T23:48:38.409Z,6.40
2019-05-11T23:51:08.716Z,6.10
2019-05-11T23:53:39.150Z,6.00
2019-05-11T23:56:08.678Z,6.40
2019-05-11T23:58:41.564Z,6.50
